WetterOnline ( http://www.wetteronline.de )

Wetter aktuell Neubrandenburg

Aktuelles Wetter: Feldberg (115m)

6-stündlich | Neueste Meldungen
Ortszeit Temperatur Wetter
Mo, 18.02. 13:00 11.8° C wolkenlos
Mo, 18.02. 7:00 -0.8° C wolkenlos
Mo, 18.02. 1:00 1.9° C wolkenlos
So, 17.02. 19:00 6.4° C wolkenlos
So, 17.02. 13:00 11.0° C fast wolkenlos
So, 17.02. 7:00 3.0° C bewölkt
So, 17.02. 1:00 2.7° C wolkenlos
Sa, 16.02. 19:00 5.7° C wolkenlos
Ortszeit Temperatur Wetter
Mo, 18.02. 13:30 12.2° C fast wolkenlos
Mo, 18.02. 13:20 12.2° C fast wolkenlos
Mo, 18.02. 13:10 12.0° C fast wolkenlos
Mo, 18.02. 13:00 11.8° C wolkenlos
Mo, 18.02. 12:50 11.8° C wolkenlos
Mo, 18.02. 12:40 11.1° C fast wolkenlos
Mo, 18.02. 12:30 11.0° C fast wolkenlos
Mo, 18.02. 12:00 9.7° C leicht bewölkt
Mo, 18.02. 11:30 8.4° C wolkenlos
Mo, 18.02. 11:00 7.2° C fast wolkenlos
Mo, 18.02. 10:30 6.3° C fast wolkenlos
Ortszeit Relative Feuchte Sichtweite
Mo, 18.02. 13:00 58% 15 km
Mo, 18.02. 7:00 95% 3.2 km
Mo, 18.02. 1:00 95% 3.3 km
So, 17.02. 19:00 89% 7 km
So, 17.02. 13:00 70% 19 km
So, 17.02. 7:00 84% 13 km
So, 17.02. 1:00 81% 19 km
Sa, 16.02. 19:00 72% 30 km
Ortszeit Relative Feuchte Sichtweite
Mo, 18.02. 13:30 50% 18 km
Mo, 18.02. 13:20 50% -
Mo, 18.02. 13:10 53% -
Mo, 18.02. 13:00 58% 15 km
Mo, 18.02. 12:50 58% -
Mo, 18.02. 12:40 58% -
Mo, 18.02. 12:30 55% 15 km
Mo, 18.02. 12:00 59% 14 km
Mo, 18.02. 11:30 64% 13 km
Mo, 18.02. 11:00 69% 12 km
Mo, 18.02. 10:30 74% 10 km
Ortszeit Niederschlagsmenge Niederschlagsart
Mo, 18.02. 13:00 0.0 l/m2 in 6 Std. -
Mo, 18.02. 7:00 0.0 l/m2 in 12 Std. -
Mo, 18.02. 1:00 0.0 l/m2 in 6 Std. -
So, 17.02. 19:00 0.0 l/m2 in 12 Std. -
So, 17.02. 13:00 0.0 l/m2 in 6 Std. -
So, 17.02. 7:00 0.0 l/m2 in 12 Std. -
So, 17.02. 1:00 0.0 l/m2 in 6 Std. -
Sa, 16.02. 19:00 0.0 l/m2 in 12 Std. -
Ortszeit Niederschlagsmenge Niederschlagsart
Mo, 18.02. 13:30 0.0 l/m2 in 1 Std. -
Mo, 18.02. 13:20 keine Meldung -
Mo, 18.02. 13:10 keine Meldung -
Mo, 18.02. 13:00 0.0 l/m2 in 1 Std. -
Mo, 18.02. 12:50 keine Meldung -
Mo, 18.02. 12:40 keine Meldung -
Mo, 18.02. 12:30 0.0 l/m2 in 1 Std. -
Mo, 18.02. 12:00 0.0 l/m2 in 1 Std. -
Mo, 18.02. 11:30 0.0 l/m2 in 1 Std. -
Mo, 18.02. 11:00 0.0 l/m2 in 1 Std. -
Mo, 18.02. 10:30 0.0 l/m2 in 1 Std. -
Ortszeit Stärke Spitze Richtung
km/h Bft. km/h Grad Sektor
Mo, 18.02. 13:00 7 2 14 190° S
Mo, 18.02. 7:00 4 1 7 220° SW
Mo, 18.02. 1:00 7 2 11 100° O
So, 17.02. 19:00 7 2 14 100° O
So, 17.02. 13:00 7 2 14 270° W
So, 17.02. 7:00 9 2 13 250° W
So, 17.02. 1:00 11 2 22 250° W
Sa, 16.02. 19:00 9 2 31 250° W
Ortszeit Stärke Spitze Richtung
km/h Bft. km/h Grad Sektor
Mo, 18.02. 13:30 11 2 14 210° SW
Mo, 18.02. 13:20 11 2 - 210° SW
Mo, 18.02. 13:10 11 2 - 200° S
Mo, 18.02. 13:00 7 2 14 190° S
Mo, 18.02. 12:50 7 2 - 190° S
Mo, 18.02. 12:40 9 2 - 180° S
Mo, 18.02. 12:30 7 2 11 210° SW
Mo, 18.02. 12:00 7 2 11 250° W
Mo, 18.02. 11:30 7 2 11 250° W
Mo, 18.02. 11:00 9 2 11 240° SW
Mo, 18.02. 10:30 7 2 11 220° SW
Ortszeit Untergrenze Bedeckung Gattung
total tief tief mittel hoch
Mo, 18.02. 13:00 8400 m 0/8 0/8 - - -
Mo, 18.02. 7:00 7800 m 0/8 0/8 - - -
Mo, 18.02. 1:00 - 0/8 0/8 - - -
So, 17.02. 19:00 - 0/8 0/8 - - -
So, 17.02. 13:00 570 m 1/8 1/8 - - -
So, 17.02. 7:00 600 m 7/8 7/8 - - -
So, 17.02. 1:00 - 0/8 0/8 - - -
Sa, 16.02. 19:00 - 0/8 0/8 - - -
Ortszeit Bedeckungsgrad in Achtel und Wolkenuntergrenze
Mo, 18.02. 13:30 2(8400m)
Mo, 18.02. 13:20 2(8400m)
Mo, 18.02. 13:10 1(8400m)
Mo, 18.02. 13:00 1(8400m)
Mo, 18.02. 12:50 keine Wolken
Mo, 18.02. 12:40 1(8700m)
Mo, 18.02. 12:30 2(8700m)
Mo, 18.02. 12:00 3(8400m)
Mo, 18.02. 11:30 keine Wolken
Mo, 18.02. 11:00 1(8700m)
Mo, 18.02. 10:30 2(8700m)
Ortszeit Luftdruck NN (hPa) Tendenz (hPa in 3 Std.)
Mo, 18.02. 13:00 1019 - 0,9
Mo, 18.02. 7:00 1020 - 0,7
Mo, 18.02. 1:00 1022 - 1,0
So, 17.02. 19:00 1023 - 0,4
So, 17.02. 13:00 1025 - 0,6
So, 17.02. 7:00 1025 + 0,2
So, 17.02. 1:00 1025 + 0,2
Sa, 16.02. 19:00 1024 + 0,3
Ortszeit Luftdruck NN (hPa) Tendenz (hPa in 3 Std.)
Mo, 18.02. 13:30 1019 - 1,4
Mo, 18.02. 13:20 1019 keine Meldung
Mo, 18.02. 13:10 1019 keine Meldung
Mo, 18.02. 13:00 1019 - 0,9
Mo, 18.02. 12:50 1019 keine Meldung
Mo, 18.02. 12:40 1019 keine Meldung
Mo, 18.02. 12:30 1019 - 0,7
Mo, 18.02. 12:00 1020 - 0,4
Mo, 18.02. 11:30 1020 - 0,2
Mo, 18.02. 11:00 1020 + 0,1
Mo, 18.02. 10:30 1020 + 0,3
Ortszeit Schneehöhe (cm)
Mo, 18.02. 13:00 0
Mo, 18.02. 7:00 0
Mo, 18.02. 1:00 0
So, 17.02. 19:00 0
So, 17.02. 13:00 0
So, 17.02. 7:00 0
So, 17.02. 1:00 0
Sa, 16.02. 19:00 0
Ortszeit Schneehöhe (cm)
Mo, 18.02. 13:30 0
Mo, 18.02. 13:20 0
Mo, 18.02. 13:10 0
Mo, 18.02. 13:00 0
Mo, 18.02. 12:50 0
Mo, 18.02. 12:40 0
Mo, 18.02. 12:30 0
Mo, 18.02. 12:00 0
Mo, 18.02. 11:30 0
Mo, 18.02. 11:00 0
Mo, 18.02. 10:30 0
Link zu dieser Seite / Seite empfehlen

Das Wetter in ...